createdAt,value
2023-03-29T00:00:13.107Z,22.70
2023-03-29T00:02:40.353Z,22.68
2023-03-29T00:05:07.825Z,22.69
2023-03-29T00:07:36.089Z,22.69
2023-03-29T00:10:03.403Z,22.68
2023-03-29T00:12:30.243Z,22.67
2023-03-29T00:14:57.118Z,22.66
2023-03-29T00:17:24.276Z,22.61
2023-03-29T00:19:51.115Z,22.63
2023-03-29T00:22:17.908Z,22.65
2023-03-29T00:24:46.146Z,22.58
2023-03-29T00:27:13.068Z,22.53
2023-03-29T00:29:39.903Z,22.51
2023-03-29T00:32:06.738Z,22.49
2023-03-29T00:34:33.633Z,22.47
2023-03-29T00:37:00.426Z,22.48
2023-03-29T00:39:27.670Z,22.51
2023-03-29T00:41:55.875Z,22.58
2023-03-29T00:44:41.358Z,22.60
2023-03-29T00:47:08.418Z,22.60
2023-03-29T00:49:35.240Z,22.61
2023-03-29T00:52:02.174Z,22.62
2023-03-29T00:54:28.985Z,22.59
2023-03-29T00:56:57.211Z,22.60
2023-03-29T00:59:27.288Z,22.58
2023-03-29T01:01:57.266Z,22.58
2023-03-29T01:04:26.945Z,22.58
2023-03-29T01:06:56.580Z,22.57
2023-03-29T01:09:24.977Z,22.55
2023-03-29T01:11:53.889Z,22.51
2023-03-29T01:14:25.965Z,22.48
2023-03-29T01:16:52.806Z,22.43
2023-03-29T01:19:22.216Z,22.41
2023-03-29T01:21:51.232Z,22.44
2023-03-29T01:24:26.283Z,22.42
2023-03-29T01:27:00.415Z,22.44
2023-03-29T01:29:31.962Z,22.45
2023-03-29T01:32:01.394Z,22.50
2023-03-29T01:34:33.117Z,22.51
2023-03-29T01:37:03.459Z,22.54
2023-03-29T01:39:30.346Z,22.57
2023-03-29T01:42:03.728Z,22.54
2023-03-29T01:44:36.589Z,22.55
2023-03-29T01:47:09.340Z,22.56
2023-03-29T01:49:40.077Z,22.51
2023-03-29T01:52:09.188Z,22.51
2023-03-29T01:54:39.565Z,22.50
2023-03-29T01:57:07.367Z,22.49
2023-03-29T01:59:38.308Z,22.48
2023-03-29T02:02:08.003Z,22.51
2023-03-29T02:04:37.385Z,22.44
2023-03-29T02:07:06.423Z,22.20
2023-03-29T02:09:34.311Z,22.36
2023-03-29T02:12:02.344Z,22.35
2023-03-29T02:14:29.145Z,22.42
2023-03-29T02:16:57.340Z,22.50
2023-03-29T02:19:25.121Z,22.77
2023-03-29T02:21:56.375Z,23.16
2023-03-29T02:24:24.266Z,23.36
2023-03-29T02:26:51.250Z,23.48
2023-03-29T02:29:18.065Z,23.49
2023-03-29T02:31:49.344Z,23.51
2023-03-29T02:34:20.683Z,23.48
2023-03-29T02:36:49.912Z,23.45
2023-03-29T02:39:17.348Z,23.46
2023-03-29T02:41:45.599Z,23.45
2023-03-29T02:44:13.783Z,23.45
2023-03-29T02:46:40.817Z,23.45
2023-03-29T02:49:07.767Z,23.38
2023-03-29T02:51:36.649Z,23.32
2023-03-29T02:54:06.839Z,23.35
2023-03-29T02:56:40.696Z,23.32
2023-03-29T02:59:07.522Z,23.15
2023-03-29T03:01:34.396Z,23.09
2023-03-29T03:04:01.248Z,23.04
2023-03-29T03:06:28.080Z,22.99
2023-03-29T03:08:56.260Z,23.02
2023-03-29T03:11:23.175Z,23.06
2023-03-29T03:13:49.991Z,23.06
2023-03-29T03:16:16.829Z,22.99
2023-03-29T03:18:43.777Z,22.97
2023-03-29T03:21:10.583Z,22.92
2023-03-29T03:23:37.377Z,22.94
2023-03-29T03:26:05.644Z,22.91
2023-03-29T03:28:32.466Z,22.91
2023-03-29T03:30:59.371Z,22.88
2023-03-29T03:33:26.299Z,22.81
2023-03-29T03:35:53.121Z,22.80
2023-03-29T03:38:19.968Z,22.87
2023-03-29T03:40:52.673Z,22.82
2023-03-29T03:43:20.833Z,22.78
2023-03-29T03:45:47.703Z,22.77
2023-03-29T03:48:15.022Z,22.71
2023-03-29T03:50:41.912Z,22.72
2023-03-29T03:53:08.710Z,22.66
2023-03-29T03:55:35.545Z,22.65
2023-03-29T03:58:02.369Z,22.63
2023-03-29T04:00:30.661Z,22.63
2023-03-29T04:02:57.576Z,22.67
2023-03-29T04:05:24.529Z,22.72
2023-03-29T04:07:51.364Z,22.83
2023-03-29T04:10:18.218Z,22.88
2023-03-29T04:12:45.133Z,23.00
2023-03-29T04:15:12.486Z,23.15
2023-03-29T04:17:40.889Z,23.30
2023-03-29T04:20:07.977Z,23.39
2023-03-29T04:22:34.784Z,23.50
2023-03-29T04:25:01.629Z,23.50
2023-03-29T04:27:28.502Z,23.54
2023-03-29T04:29:55.338Z,23.55
2023-03-29T04:32:22.202Z,23.48
2023-03-29T04:34:50.385Z,23.50
2023-03-29T04:37:17.185Z,23.80
2023-03-29T04:39:44.049Z,24.27
2023-03-29T04:42:10.842Z,24.38
2023-03-29T04:44:37.688Z,24.33
2023-03-29T04:47:04.607Z,24.29
2023-03-29T04:49:31.398Z,24.28
2023-03-29T04:51:59.544Z,24.26
2023-03-29T04:54:26.413Z,24.30
2023-03-29T04:56:53.259Z,24.07
2023-03-29T04:59:20.232Z,24.02
2023-03-29T05:01:47.064Z,24.05
2023-03-29T05:04:14.016Z,24.18
2023-03-29T05:06:41.013Z,24.24
2023-03-29T05:09:09.202Z,24.22
2023-03-29T05:11:36.022Z,24.21
2023-03-29T05:14:02.822Z,24.15
2023-03-29T05:16:29.786Z,24.14
2023-03-29T05:18:56.697Z,24.07
2023-03-29T05:21:23.488Z,24.05
2023-03-29T05:23:50.352Z,24.00
2023-03-29T05:26:18.543Z,23.98
2023-03-29T05:28:45.332Z,23.90
2023-03-29T05:31:12.798Z,23.89
2023-03-29T05:33:40.974Z,23.85
2023-03-29T05:36:08.964Z,23.87
2023-03-29T05:38:36.032Z,23.91
2023-03-29T05:41:03.369Z,23.90
2023-03-29T05:43:31.848Z,23.90
2023-03-29T05:45:58.770Z,23.88
2023-03-29T05:48:26.096Z,23.91
2023-03-29T05:50:53.579Z,23.88
2023-03-29T05:53:21.438Z,23.83
2023-03-29T05:55:48.259Z,23.82
2023-03-29T05:58:15.135Z,23.77
2023-03-29T06:00:43.637Z,23.77
2023-03-29T06:03:20.825Z,23.72
2023-03-29T06:05:49.847Z,23.69
2023-03-29T06:08:16.823Z,23.58
2023-03-29T06:10:43.745Z,23.54
2023-03-29T06:13:10.555Z,23.48
2023-03-29T06:15:37.368Z,23.52
2023-03-29T06:18:05.645Z,23.52
2023-03-29T06:20:32.564Z,23.46
2023-03-29T06:22:59.352Z,23.51
2023-03-29T06:25:26.207Z,23.53
2023-03-29T06:27:53.234Z,23.56
2023-03-29T06:30:20.136Z,23.54
2023-03-29T06:32:46.972Z,23.54
2023-03-29T06:35:15.340Z,23.53
2023-03-29T06:37:42.177Z,23.49
2023-03-29T06:40:09.708Z,23.48
2023-03-29T06:42:36.517Z,23.47
2023-03-29T06:45:03.544Z,23.45
2023-03-29T06:47:30.365Z,23.42
2023-03-29T06:49:57.252Z,23.42
2023-03-29T06:52:25.427Z,23.39
2023-03-29T06:54:52.240Z,23.37
2023-03-29T06:57:19.202Z,23.31
2023-03-29T06:59:46.121Z,23.27
2023-03-29T07:02:13.058Z,23.26
2023-03-29T07:04:40.016Z,23.20
2023-03-29T07:07:06.937Z,23.25
2023-03-29T07:09:35.216Z,23.19
2023-03-29T07:12:02.050Z,23.22
2023-03-29T07:14:28.939Z,23.23
2023-03-29T07:16:56.046Z,23.29
2023-03-29T07:19:23.035Z,23.26
2023-03-29T07:21:49.955Z,23.31
2023-03-29T07:24:16.902Z,23.33
2023-03-29T07:26:59.982Z,23.29
2023-03-29T07:29:29.883Z,23.30
2023-03-29T07:31:56.876Z,23.26
2023-03-29T07:34:23.978Z,23.26
2023-03-29T07:36:50.797Z,23.25
2023-03-29T07:39:17.612Z,23.24
2023-03-29T07:41:45.822Z,23.24
2023-03-29T07:44:12.760Z,23.24
2023-03-29T07:46:39.616Z,23.20
2023-03-29T07:49:06.423Z,23.13
2023-03-29T07:51:33.225Z,23.10
2023-03-29T07:54:00.114Z,23.08
2023-03-29T07:56:26.941Z,23.05
2023-03-29T07:58:55.147Z,23.06
2023-03-29T08:01:22.078Z,23.05
2023-03-29T08:03:48.942Z,23.10
2023-03-29T08:06:15.773Z,23.14
2023-03-29T08:08:42.710Z,23.17
2023-03-29T08:11:09.570Z,23.18
2023-03-29T08:13:36.383Z,23.16
2023-03-29T08:16:04.991Z,23.19
2023-03-29T08:18:34.257Z,23.17
2023-03-29T08:21:01.991Z,23.14
2023-03-29T08:23:29.124Z,23.14
2023-03-29T08:25:55.950Z,23.11
2023-03-29T08:28:22.839Z,23.09
2023-03-29T08:30:49.875Z,23.11
2023-03-29T08:33:18.123Z,23.09
2023-03-29T08:35:45.028Z,23.09
2023-03-29T08:38:12.232Z,23.05
2023-03-29T08:40:39.226Z,22.99
2023-03-29T08:43:20.926Z,22.99
2023-03-29T08:45:53.716Z,22.98
2023-03-29T08:48:26.042Z,22.98
2023-03-29T08:50:54.210Z,22.99
2023-03-29T08:53:24.146Z,23.04
2023-03-29T08:55:52.821Z,23.08
2023-03-29T08:58:20.792Z,23.11
2023-03-29T09:00:49.440Z,23.12
2023-03-29T09:03:19.358Z,23.11
2023-03-29T09:05:48.455Z,23.13
2023-03-29T09:08:16.485Z,23.10
2023-03-29T09:10:46.083Z,23.10
2023-03-29T09:13:27.758Z,23.11
2023-03-29T09:15:58.254Z,23.08
2023-03-29T09:18:30.111Z,23.08
2023-03-29T09:21:00.418Z,23.07
2023-03-29T09:23:37.441Z,23.06
2023-03-29T09:26:08.079Z,23.02
2023-03-29T09:28:36.439Z,22.98
2023-03-29T09:31:05.613Z,22.98
2023-03-29T09:33:35.244Z,22.96
2023-03-29T09:36:06.085Z,22.96
2023-03-29T09:38:41.178Z,22.96
2023-03-29T09:41:14.743Z,22.93
2023-03-29T09:43:42.780Z,23.02
2023-03-29T09:46:16.447Z,23.07
2023-03-29T09:48:44.160Z,23.08
2023-03-29T09:51:12.869Z,23.11
2023-03-29T09:53:39.749Z,23.07
2023-03-29T09:56:07.184Z,23.11
2023-03-29T09:58:34.305Z,23.08
2023-03-29T10:01:02.833Z,23.07
2023-03-29T10:03:30.875Z,23.08
2023-03-29T10:05:59.278Z,23.05
2023-03-29T10:08:28.518Z,23.06
2023-03-29T10:10:57.083Z,23.06
2023-03-29T10:13:27.747Z,23.02
2023-03-29T10:15:58.092Z,23.02
2023-03-29T10:18:25.311Z,22.98
2023-03-29T10:20:57.500Z,22.96
2023-03-29T10:23:24.335Z,22.92
2023-03-29T10:25:53.333Z,22.91
2023-03-29T10:28:21.513Z,22.91
2023-03-29T10:30:53.041Z,22.91
2023-03-29T10:33:22.257Z,23.02
2023-03-29T10:35:49.894Z,23.05
2023-03-29T10:38:18.531Z,23.06
2023-03-29T10:40:46.640Z,23.04
2023-03-29T10:43:20.575Z,23.06
2023-03-29T10:45:48.662Z,23.05
2023-03-29T10:48:16.310Z,23.05
2023-03-29T10:50:48.105Z,23.05
2023-03-29T10:53:17.310Z,23.05
2023-03-29T10:55:51.812Z,23.05
2023-03-29T10:58:28.212Z,23.03
2023-03-29T11:00:56.053Z,23.04
2023-03-29T11:03:33.494Z,23.06
2023-03-29T11:06:06.899Z,23.03
2023-03-29T11:08:39.860Z,22.95
2023-03-29T11:11:11.887Z,22.94
2023-03-29T11:13:45.212Z,22.92
2023-03-29T11:16:17.917Z,22.95
2023-03-29T11:18:50.406Z,22.93
2023-03-29T11:21:22.214Z,22.96
2023-03-29T11:23:53.298Z,23.02
2023-03-29T11:26:22.533Z,23.02
2023-03-29T11:28:53.008Z,23.04
2023-03-29T11:31:27.277Z,23.03
2023-03-29T11:34:01.119Z,23.04
2023-03-29T11:36:32.622Z,23.04
2023-03-29T11:39:03.305Z,23.04
2023-03-29T11:41:31.472Z,23.04
2023-03-29T11:44:02.356Z,22.99
2023-03-29T11:46:32.289Z,23.03
2023-03-29T11:49:02.156Z,23.02
2023-03-29T11:51:32.642Z,23.00
2023-03-29T11:54:03.190Z,23.03
2023-03-29T11:56:33.924Z,22.94
2023-03-29T11:59:05.214Z,22.94
2023-03-29T12:01:33.945Z,22.91
2023-03-29T12:04:04.197Z,22.92
2023-03-29T12:06:34.208Z,22.92
2023-03-29T12:09:03.250Z,22.93
2023-03-29T12:11:33.314Z,22.96
2023-03-29T12:14:03.940Z,23.00
2023-03-29T12:16:34.984Z,23.04
2023-03-29T12:19:04.384Z,23.03
2023-03-29T12:21:32.094Z,23.03
2023-03-29T12:23:58.956Z,23.02
2023-03-29T12:26:45.433Z,23.03
2023-03-29T12:29:18.137Z,23.03
2023-03-29T12:31:52.528Z,23.02
2023-03-29T12:34:27.077Z,22.96
2023-03-29T12:37:02.097Z,22.96
2023-03-29T12:39:30.065Z,22.95
2023-03-29T12:42:05.112Z,22.98
2023-03-29T12:44:32.619Z,22.94
2023-03-29T12:47:01.102Z,22.89
2023-03-29T12:49:29.506Z,22.88
2023-03-29T12:51:57.505Z,22.87
2023-03-29T12:54:28.160Z,22.86
2023-03-29T12:56:56.562Z,22.84
2023-03-29T12:59:26.904Z,22.87
2023-03-29T13:01:58.938Z,22.88
2023-03-29T13:04:35.950Z,22.94
2023-03-29T13:07:03.018Z,22.98
2023-03-29T13:09:31.172Z,22.97
2023-03-29T13:12:03.742Z,22.94
2023-03-29T13:14:32.889Z,22.92
2023-03-29T13:17:12.009Z,22.95
2023-03-29T13:19:49.253Z,22.95
2023-03-29T13:22:22.372Z,22.93
2023-03-29T13:25:04.084Z,22.92
2023-03-29T13:27:34.382Z,22.94
2023-03-29T13:30:10.622Z,22.94
2023-03-29T13:32:48.839Z,22.94
2023-03-29T13:35:20.658Z,22.92
2023-03-29T13:37:51.761Z,22.85
2023-03-29T13:40:27.137Z,22.86
2023-03-29T13:42:58.756Z,22.82
2023-03-29T13:45:26.911Z,22.83
2023-03-29T13:50:34.494Z,22.81
2023-03-29T13:53:03.643Z,22.86
2023-03-29T13:55:33.622Z,22.92
2023-03-29T13:58:04.405Z,22.98
2023-03-29T14:00:33.693Z,22.99
2023-03-29T14:03:02.312Z,22.97
2023-03-29T14:05:31.857Z,23.01
2023-03-29T14:08:05.198Z,23.02
2023-03-29T14:10:34.775Z,23.00
2023-03-29T14:13:03.198Z,23.04
2023-03-29T14:15:39.556Z,23.06
2023-03-29T14:18:09.992Z,23.07
2023-03-29T14:20:36.820Z,23.08
2023-03-29T14:23:10.631Z,23.03
2023-03-29T14:25:38.674Z,23.02
2023-03-29T14:28:12.527Z,22.94
2023-03-29T14:30:44.757Z,22.90
2023-03-29T14:33:12.166Z,22.86
2023-03-29T14:35:39.402Z,22.83
2023-03-29T14:38:06.475Z,22.86
2023-03-29T14:40:34.757Z,22.84
2023-03-29T14:43:05.309Z,22.88
2023-03-29T14:45:32.332Z,22.92
2023-03-29T14:47:59.462Z,22.92
2023-03-29T14:50:28.171Z,22.95
2023-03-29T14:52:56.314Z,22.92
2023-03-29T14:55:23.285Z,22.92
2023-03-29T14:57:53.589Z,22.93
2023-03-29T15:00:23.052Z,22.89
2023-03-29T15:02:50.638Z,22.90
2023-03-29T15:05:25.653Z,22.91
2023-03-29T15:07:52.605Z,22.87
2023-03-29T15:10:19.640Z,22.92
2023-03-29T15:12:46.539Z,22.96
2023-03-29T15:15:15.177Z,22.91
2023-03-29T15:17:51.710Z,22.83
2023-03-29T15:20:20.891Z,22.79
2023-03-29T15:22:55.778Z,22.80
2023-03-29T15:25:22.960Z,22.82
2023-03-29T15:27:50.843Z,22.80
2023-03-29T15:30:19.263Z,22.79
2023-03-29T15:32:46.248Z,22.84
2023-03-29T15:35:23.057Z,22.90
2023-03-29T15:37:50.631Z,22.93
2023-03-29T15:40:18.658Z,22.94
2023-03-29T15:42:45.644Z,22.96
2023-03-29T15:45:15.139Z,22.96
2023-03-29T15:47:43.625Z,22.95
2023-03-29T15:50:10.682Z,22.96
2023-03-29T15:52:37.790Z,22.93
2023-03-29T15:55:04.992Z,22.93
2023-03-29T15:57:31.845Z,22.96
2023-03-29T15:59:58.780Z,22.99
2023-03-29T16:02:25.993Z,23.00
2023-03-29T16:04:54.210Z,22.96
2023-03-29T16:07:21.101Z,22.93
2023-03-29T16:09:47.944Z,22.86
2023-03-29T16:12:14.760Z,22.86
2023-03-29T16:14:43.139Z,22.85
2023-03-29T16:17:10.180Z,22.86
2023-03-29T16:19:36.996Z,22.87
2023-03-29T16:22:05.221Z,22.86
2023-03-29T16:24:32.180Z,22.93
2023-03-29T16:26:59.140Z,22.95
2023-03-29T16:29:25.994Z,22.95
2023-03-29T16:31:53.604Z,22.96
2023-03-29T16:34:20.874Z,22.93
2023-03-29T16:36:47.934Z,22.92
2023-03-29T16:39:16.459Z,22.90
2023-03-29T16:41:43.394Z,22.86
2023-03-29T16:44:13.432Z,22.98
2023-03-29T16:46:40.510Z,23.28
2023-03-29T16:49:11.162Z,23.56
2023-03-29T16:51:40.413Z,23.82
2023-03-29T16:54:07.460Z,23.95
2023-03-29T16:56:36.153Z,23.98
2023-03-29T16:59:03.306Z,23.94
2023-03-29T17:01:30.465Z,23.92
2023-03-29T17:03:57.640Z,23.94
2023-03-29T17:06:24.947Z,23.92
2023-03-29T17:08:51.930Z,23.93
2023-03-29T17:11:19.006Z,23.97
2023-03-29T17:13:47.402Z,24.01
2023-03-29T17:16:14.639Z,23.96
2023-03-29T17:18:41.792Z,23.89
2023-03-29T17:21:08.985Z,23.89
2023-03-29T17:23:36.073Z,23.87
2023-03-29T17:26:03.565Z,23.87
2023-03-29T17:28:30.742Z,23.88
2023-03-29T17:30:59.159Z,23.73
2023-03-29T17:33:26.254Z,23.76
2023-03-29T17:35:53.497Z,23.75
2023-03-29T17:38:20.567Z,23.76
2023-03-29T17:40:51.709Z,23.75
2023-03-29T17:43:18.766Z,23.61
2023-03-29T17:45:45.785Z,23.52
2023-03-29T17:48:14.184Z,23.75
2023-03-29T17:50:41.254Z,23.77
2023-03-29T17:53:08.282Z,23.67
2023-03-29T17:55:35.269Z,23.49
2023-03-29T17:58:02.372Z,23.43
2023-03-29T18:00:29.417Z,23.47
2023-03-29T18:02:56.555Z,23.54
2023-03-29T18:05:25.171Z,23.51
2023-03-29T18:07:52.282Z,23.50
2023-03-29T18:10:19.367Z,23.63
2023-03-29T18:12:46.405Z,23.71
2023-03-29T18:15:13.527Z,23.66
2023-03-29T18:17:40.703Z,23.57
2023-03-29T18:20:08.361Z,23.59
2023-03-29T18:22:36.746Z,23.71
2023-03-29T18:25:04.095Z,23.70
2023-03-29T18:27:32.235Z,23.64
2023-03-29T18:29:59.105Z,23.70
2023-03-29T18:32:26.041Z,23.71
2023-03-29T18:34:52.981Z,23.58
2023-03-29T18:37:19.856Z,23.53
2023-03-29T18:39:48.100Z,23.36
2023-03-29T18:42:15.014Z,23.32
2023-03-29T18:44:41.839Z,23.31
2023-03-29T18:47:08.634Z,23.34
2023-03-29T18:49:35.556Z,23.45
2023-03-29T18:52:02.409Z,23.42
2023-03-29T18:54:29.377Z,23.43
2023-03-29T18:56:59.247Z,23.44
2023-03-29T18:59:26.472Z,23.36
2023-03-29T19:01:53.365Z,23.32
2023-03-29T19:04:20.221Z,23.36
2023-03-29T19:06:47.055Z,23.38
2023-03-29T19:09:14.070Z,23.41
2023-03-29T19:11:40.974Z,23.36
2023-03-29T19:14:09.469Z,23.41
2023-03-29T19:16:36.377Z,23.46
2023-03-29T19:19:03.504Z,23.48
2023-03-29T19:21:30.313Z,23.35
2023-03-29T19:23:57.107Z,23.25
2023-03-29T19:26:24.057Z,23.23
2023-03-29T19:28:50.866Z,23.29
2023-03-29T19:31:19.141Z,23.30
2023-03-29T19:33:46.052Z,23.32
2023-03-29T19:36:12.927Z,23.36
2023-03-29T19:38:39.927Z,23.38
2023-03-29T19:41:06.964Z,23.35
2023-03-29T19:43:33.884Z,23.32
2023-03-29T19:46:05.433Z,23.29
2023-03-29T19:48:33.777Z,23.33
2023-03-29T19:51:01.490Z,23.32
2023-03-29T19:53:28.501Z,23.30
2023-03-29T19:55:55.334Z,23.36
2023-03-29T19:58:22.176Z,23.31
2023-03-29T20:00:49.145Z,23.26
2023-03-29T20:03:16.257Z,23.31
2023-03-29T20:05:45.908Z,23.26
2023-03-29T20:08:12.806Z,23.25
2023-03-29T20:10:39.656Z,23.17
2023-03-29T20:13:06.593Z,23.23
2023-03-29T20:15:34.616Z,23.24
2023-03-29T20:18:01.748Z,23.22
2023-03-29T20:20:28.609Z,23.24
2023-03-29T20:22:56.810Z,23.25
2023-03-29T20:25:23.905Z,23.30
2023-03-29T20:27:50.724Z,23.31
2023-03-29T20:30:17.713Z,23.30
2023-03-29T20:32:44.597Z,23.26
2023-03-29T20:35:11.500Z,23.23
2023-03-29T20:37:38.376Z,23.20
2023-03-29T20:40:07.807Z,23.17
2023-03-29T20:42:34.700Z,23.15
2023-03-29T20:45:01.535Z,23.10
2023-03-29T20:47:28.565Z,23.06
2023-03-29T20:49:55.361Z,23.06
2023-03-29T20:52:22.917Z,23.07
2023-03-29T20:54:50.642Z,23.05
2023-03-29T20:57:19.754Z,23.02
2023-03-29T20:59:46.988Z,23.00
2023-03-29T21:02:14.258Z,23.09
2023-03-29T21:04:41.493Z,23.09
2023-03-29T21:07:08.344Z,23.09
2023-03-29T21:09:35.719Z,23.09
2023-03-29T21:12:02.699Z,23.10
2023-03-29T21:14:31.154Z,23.09
2023-03-29T21:16:57.969Z,22.97
2023-03-29T21:19:25.076Z,23.16
2023-03-29T21:21:52.276Z,23.14
2023-03-29T21:24:19.204Z,23.18
2023-03-29T21:26:46.014Z,23.18
2023-03-29T21:29:13.013Z,23.14
2023-03-29T21:31:41.419Z,23.11
2023-03-29T21:34:08.237Z,23.05
2023-03-29T21:36:35.061Z,23.06
2023-03-29T21:39:01.923Z,23.02
2023-03-29T21:41:28.782Z,23.00
2023-03-29T21:43:55.596Z,22.99
2023-03-29T21:46:22.434Z,23.01
2023-03-29T21:48:50.590Z,22.99
2023-03-29T21:51:17.710Z,22.99
2023-03-29T21:53:44.903Z,23.04
2023-03-29T21:56:11.747Z,23.06
2023-03-29T21:58:38.537Z,23.02
2023-03-29T22:01:07.721Z,23.07
2023-03-29T22:03:34.541Z,23.11
2023-03-29T22:06:03.931Z,23.14
2023-03-29T22:08:30.850Z,23.14
2023-03-29T22:10:57.792Z,23.15
2023-03-29T22:13:25.466Z,23.12
2023-03-29T22:15:56.358Z,23.10
2023-03-29T22:18:23.215Z,23.09
2023-03-29T22:20:50.053Z,23.10
2023-03-29T22:23:18.239Z,23.06
2023-03-29T22:25:45.026Z,23.06
2023-03-29T22:28:11.822Z,23.06
2023-03-29T22:30:38.947Z,23.06
2023-03-29T22:33:05.821Z,23.04
2023-03-29T22:35:33.823Z,23.00
2023-03-29T22:38:00.774Z,22.96
2023-03-29T22:40:28.950Z,22.97
2023-03-29T22:42:55.895Z,22.97
2023-03-29T22:45:22.743Z,22.99
2023-03-29T22:47:49.694Z,22.99
2023-03-29T22:50:16.694Z,22.99
2023-03-29T22:52:43.731Z,23.02
2023-03-29T22:55:10.544Z,23.08
2023-03-29T22:57:38.852Z,23.09
2023-03-29T23:00:07.166Z,23.09
2023-03-29T23:02:34.115Z,23.06
2023-03-29T23:05:00.916Z,23.04
2023-03-29T23:07:27.752Z,23.04
2023-03-29T23:09:54.558Z,23.05
2023-03-29T23:12:21.351Z,23.04
2023-03-29T23:14:49.570Z,23.03
2023-03-29T23:17:16.373Z,23.02
2023-03-29T23:19:43.172Z,22.99
2023-03-29T23:22:10.054Z,23.01
2023-03-29T23:24:36.850Z,22.98
2023-03-29T23:27:03.711Z,22.95
2023-03-29T23:29:30.537Z,22.93
2023-03-29T23:31:58.726Z,22.92
2023-03-29T23:34:25.547Z,22.91
2023-03-29T23:36:52.398Z,22.91
2023-03-29T23:39:19.220Z,22.92
2023-03-29T23:41:46.016Z,23.00
2023-03-29T23:44:12.875Z,23.01
2023-03-29T23:46:39.766Z,23.03
2023-03-29T23:49:08.112Z,23.02
2023-03-29T23:51:34.958Z,23.03
2023-03-29T23:54:01.762Z,23.03
2023-03-29T23:56:28.565Z,23.01
2023-03-29T23:58:55.470Z,22.98
